Etusivu
METAR-TAF:

METAR-TAF

Lentoasemat :

Abu Simbel, Egypti

Leveyspiiri: 22-22-33N, Pituuspiiri: 31-36-42E, korkeus merenpinnasta: 188 m

Tämänhetkinen sää

Tämä raportti tehtiin 1 tunti ja 29 minuuttia sitten, kello 06.00 UTC
Tuuli 8 kn idästä/kaakosta
Lämpötila 32°C
Kosteus 29%
Ilmanpaine 1011 hPa
Näkyvyys 10 km tai enemmän
ei pilviä alle 1500 m:ssä eikä cumulonimbus-pilviä

METAR: HEBL 030600Z 12008KT CAVOK 32/12 Q1011 NOSIG

Aika: 09:29 (07:29 UTC)

Sääennuste

Tämä raportti tehtiin 2 tuntia ja 29 minuuttia sitten, kello 05.00 UTC
Ennuste voimassa 03. päivästä klo 06 UTC - 04. päivään klo 12 UTC
Tuuli 8 kn koillisesta
Näkyvyys 10 km tai enemmän
ei pilviä alle 1500 m:ssä eikä cumulonimbus-pilviä

TAF: HEBL 030500Z 0306/0412 04008KT CAVOK

Säähavainnot ja -ennusteet yli 4000 lentoasemalta (METAR- ja TAF-raportit).

Käytössä olevat sääasemat on merkitty karttaan keltaisilla ja punaisilla pisteillä.

Aseta hiiri pisteen päälle nähdäksesi sääaseman nimen.

Klikkaa sitten nähdäksesi säähavainnot ja -ennusteet.

Kartan vaihtaminen: klikkaa mustalla rastilla varustettuja vihreitä pisteitä, niin voit zoomata sisään; viivalla varustettua vihreää pistettä, niin voit zoomata ulos tai vihreitä nuolia, niin pääset viereisille kartoille.


METAR-TAF: